Selz, North Dakota
Current Conditions -  °F | °C
As of 9:55 PM on Friday 24 Oct 2014 (Local Time) from K5H4 Reporting Station
Clear Clear  
Wind Chill: 50°   Ceiling: Unl
Heat Index: 50°   Visibility: 10mi
Dew Point: 30°   Wind: 16mph
Humidity: 47%   Direction: 290°WNW
Pressure: 29.96"   Gusts: 22mph
Location:  47.7822°N, 99.8441°W
Report Text: K5H4 250255Z AUTO 29014G19KT 10SM CLR 10/M01 A2996 RMK AO2
Loading
Personal Weather Stations






























Interactive Weather Map
Tropical Storm Tracking
New forecast layout! Learn more

10-Day Weather Forecast

Advertisements
Track Severe Weather on mobile